Sir Randy J — WDG7206 — position and weather

sailwx.info

Track history (hours):
 
Tides and Currents Weather Stations Pressure Air Temp Water Temp Dewpoint Dewpoint Depression Visibility Wind Speed Wind Dir Waves Ship Positions

Sir Randy J

Owner: Canton Marine Towing Co., Inc., Canton, MO. More information available from US FCC via Universal Licensing System and Coast Guard Vessel Documentation Center.

Last reported at 2017-Sep-29 11:43 UTC. Time now 2017-Nov-19 10:15 UTC.
Position N 38°55' W 090°16'.
Warning: this ship's position is 50 days out of date.

Length 20 m.

Type: Towing. MMSI: 367564950.

Date/timePositionNaut miles runAvg speedWind from/ knotsBaromVisibWave heightAir tempDewpointWater temp
2017-Sep-29 11:43N 38°55' W 090°16'1 6.2
2017-Sep-29 11:30N 38°55' W 090°18'3 5.9
2017-Sep-29 11:00N 38°57' W 090°21'3 6.1
2017-Sep-29 10:30N 38°58' W 090°25'3 5.7
2017-Sep-29 10:00N 38°57' W 090°28'3 6.2
2017-Sep-29 09:30N 38°55' W 090°31'3 5.9
2017-Sep-29 09:00N 38°52' W 090°33'3 0.1
2017-Sep-27 05:53N 38°54' W 090°31'2 5.7
2017-Sep-27 05:30N 38°56' W 090°29'3 5.6
2017-Sep-27 05:00N 38°58' W 090°26'3 5.8
2017-Sep-27 04:30N 38°57' W 090°22'3 6.2
2017-Sep-27 04:00N 38°56' W 090°19'4 6.1
2017-Sep-27 03:22N 38°55' W 090°14'2 0.1
2017-Sep-26 10:40N 38°55' W 090°16'1 6.4
2017-Sep-26 10:30N 38°55' W 090°18'3 5.7
2017-Sep-26 10:00N 38°57' W 090°21'3 6.1
2017-Sep-26 09:30N 38°58' W 090°25'3 5.7
2017-Sep-26 09:00N 38°57' W 090°28'3 6.0
2017-Sep-26 08:30N 38°55' W 090°31'3 5.8
2017-Sep-26 08:00N 38°52' W 090°33'  
2017-Sep-20 15:28N 38°55' W 090°31'3 5.5
2017-Sep-20 15:00N 38°57' W 090°29'5 5.3
2017-Sep-20 14:00N 38°57' W 090°22'3 6.0
2017-Sep-20 13:30N 38°55' W 090°19'1 0.1
2017-Sep-19 23:35N 38°55' W 090°18'1 6.4
2017-Sep-19 23:30N 38°55' W 090°18'3 6.4
2017-Sep-19 23:00N 38°57' W 090°22'3 6.5
2017-Sep-19 22:30N 38°58' W 090°26'3 6.2
2017-Sep-19 22:00N 38°56' W 090°29'5 6.5
2017-Sep-19 21:16N 38°52' W 090°33'  
Track history (hours):
 
Tides and Currents Weather Stations Pressure Air Temp Water Temp Dewpoint Dewpoint Depression Visibility Wind Speed Wind Dir Waves Ship Positions

Sir Randy J

Owner: Canton Marine Towing Co., Inc., Canton, MO. More information available from US FCC via Universal Licensing System and Coast Guard Vessel Documentation Center.

Last reported at 2017-Sep-29 11:43 UTC. Time now 2017-Nov-19 10:15 UTC.
Position N 38°55' W 090°16'.
Warning: this ship's position is 50 days out of date.

Length 20 m.

Type: Towing. MMSI: 367564950.

Date/timePositionNaut miles runAvg speedWind from/ knotsBaromVisibWave heightAir tempDewpointWater temp
2017-Sep-29 11:43N 38°55' W 090°16'1 6.2
2017-Sep-29 11:30N 38°55' W 090°18'3 5.9
2017-Sep-29 11:00N 38°57' W 090°21'3 6.1
2017-Sep-29 10:30N 38°58' W 090°25'3 5.7
2017-Sep-29 10:00N 38°57' W 090°28'3 6.2
2017-Sep-29 09:30N 38°55' W 090°31'3 5.9
2017-Sep-29 09:00N 38°52' W 090°33'3 0.1
2017-Sep-27 05:53N 38°54' W 090°31'2 5.7
2017-Sep-27 05:30N 38°56' W 090°29'3 5.6
2017-Sep-27 05:00N 38°58' W 090°26'3 5.8
2017-Sep-27 04:30N 38°57' W 090°22'3 6.2
2017-Sep-27 04:00N 38°56' W 090°19'4 6.1
2017-Sep-27 03:22N 38°55' W 090°14'2 0.1
2017-Sep-26 10:40N 38°55' W 090°16'1 6.4
2017-Sep-26 10:30N 38°55' W 090°18'3 5.7
2017-Sep-26 10:00N 38°57' W 090°21'3 6.1
2017-Sep-26 09:30N 38°58' W 090°25'3 5.7
2017-Sep-26 09:00N 38°57' W 090°28'3 6.0
2017-Sep-26 08:30N 38°55' W 090°31'3 5.8
2017-Sep-26 08:00N 38°52' W 090°33'  
2017-Sep-20 15:28N 38°55' W 090°31'3 5.5
2017-Sep-20 15:00N 38°57' W 090°29'5 5.3
2017-Sep-20 14:00N 38°57' W 090°22'3 6.0
2017-Sep-20 13:30N 38°55' W 090°19'1 0.1
2017-Sep-19 23:35N 38°55' W 090°18'1 6.4
2017-Sep-19 23:30N 38°55' W 090°18'3 6.4
2017-Sep-19 23:00N 38°57' W 090°22'3 6.5
2017-Sep-19 22:30N 38°58' W 090°26'3 6.2
2017-Sep-19 22:00N 38°56' W 090°29'5 6.5
2017-Sep-19 21:16N 38°52' W 090°33'  

Dump ship's entire track history